sensor_id;sensor_type;location;lat;lon;timestamp;temperature;humidity
37806;DHT22;25082;50.870;0.022;2022-08-21T00:01:44;21.80;67.90
37806;DHT22;25082;50.870;0.022;2022-08-21T00:04:10;21.80;67.90
37806;DHT22;25082;50.870;0.022;2022-08-21T00:06:37;21.80;68.00
37806;DHT22;25082;50.870;0.022;2022-08-21T00:09:05;21.80;68.00
37806;DHT22;25082;50.870;0.022;2022-08-21T00:11:31;21.80;67.90
37806;DHT22;25082;50.870;0.022;2022-08-21T00:13:57;21.80;67.90
37806;DHT22;25082;50.870;0.022;2022-08-21T00:16:22;21.80;67.90
37806;DHT22;25082;50.870;0.022;2022-08-21T00:18:49;21.80;67.90
37806;DHT22;25082;50.870;0.022;2022-08-21T00:21:16;21.80;67.90
37806;DHT22;25082;50.870;0.022;2022-08-21T00:23:42;21.80;67.90
37806;DHT22;25082;50.870;0.022;2022-08-21T00:26:08;21.80;67.90
37806;DHT22;25082;50.870;0.022;2022-08-21T00:28:35;21.80;68.00
37806;DHT22;25082;50.870;0.022;2022-08-21T00:31:01;21.80;67.90
37806;DHT22;25082;50.870;0.022;2022-08-21T00:33:29;21.80;68.00
37806;DHT22;25082;50.870;0.022;2022-08-21T00:35:56;21.80;68.00
37806;DHT22;25082;50.870;0.022;2022-08-21T00:38:22;21.80;68.00
37806;DHT22;25082;50.870;0.022;2022-08-21T00:40:53;21.80;68.00
37806;DHT22;25082;50.870;0.022;2022-08-21T00:43:26;21.80;68.10
37806;DHT22;25082;50.870;0.022;2022-08-21T00:45:54;21.80;68.10
37806;DHT22;25082;50.870;0.022;2022-08-21T00:48:21;21.80;68.00
37806;DHT22;25082;50.870;0.022;2022-08-21T00:51:13;21.70;67.90
37806;DHT22;25082;50.870;0.022;2022-08-21T00:53:42;21.70;67.90
37806;DHT22;25082;50.870;0.022;2022-08-21T00:56:10;21.80;68.00
37806;DHT22;25082;50.870;0.022;2022-08-21T00:58:39;21.80;68.10
37806;DHT22;25082;50.870;0.022;2022-08-21T01:01:07;21.80;68.00
37806;DHT22;25082;50.870;0.022;2022-08-21T01:03:34;21.80;68.00
37806;DHT22;25082;50.870;0.022;2022-08-21T01:06:01;21.80;68.00
37806;DHT22;25082;50.870;0.022;2022-08-21T01:08:28;21.80;68.00
37806;DHT22;25082;50.870;0.022;2022-08-21T01:10:54;21.70;67.90
37806;DHT22;25082;50.870;0.022;2022-08-21T01:13:22;21.80;68.00
37806;DHT22;25082;50.870;0.022;2022-08-21T01:15:51;21.70;67.90
37806;DHT22;25082;50.870;0.022;2022-08-21T01:18:19;21.70;67.90
37806;DHT22;25082;50.870;0.022;2022-08-21T01:23:34;21.70;67.90
37806;DHT22;25082;50.870;0.022;2022-08-21T01:26:00;21.70;67.90
37806;DHT22;25082;50.870;0.022;2022-08-21T01:28:26;21.70;67.90
37806;DHT22;25082;50.870;0.022;2022-08-21T01:30:56;21.80;68.00
37806;DHT22;25082;50.870;0.022;2022-08-21T01:33:24;21.80;68.00
37806;DHT22;25082;50.870;0.022;2022-08-21T01:35:50;21.80;68.00
37806;DHT22;25082;50.870;0.022;2022-08-21T01:38:16;21.70;68.10
37806;DHT22;25082;50.870;0.022;2022-08-21T01:40:43;21.70;67.90
37806;DHT22;25082;50.870;0.022;2022-08-21T01:43:09;21.70;67.90
37806;DHT22;25082;50.870;0.022;2022-08-21T01:45:35;21.80;68.00
37806;DHT22;25082;50.870;0.022;2022-08-21T01:48:02;21.70;67.90
37806;DHT22;25082;50.870;0.022;2022-08-21T01:50:28;21.70;67.90
37806;DHT22;25082;50.870;0.022;2022-08-21T01:52:54;21.70;68.00
37806;DHT22;25082;50.870;0.022;2022-08-21T01:55:21;21.70;68.00
37806;DHT22;25082;50.870;0.022;2022-08-21T01:57:47;21.70;68.00
37806;DHT22;25082;50.870;0.022;2022-08-21T02:00:15;21.70;68.00
37806;DHT22;25082;50.870;0.022;2022-08-21T02:02:42;21.70;67.90
37806;DHT22;25082;50.870;0.022;2022-08-21T02:05:10;21.70;68.00
37806;DHT22;25082;50.870;0.022;2022-08-21T02:07:46;21.70;68.00
37806;DHT22;25082;50.870;0.022;2022-08-21T02:10:14;21.70;68.10
37806;DHT22;25082;50.870;0.022;2022-08-21T02:12:40;21.70;68.10
37806;DHT22;25082;50.870;0.022;2022-08-21T02:15:07;21.70;68.00
37806;DHT22;25082;50.870;0.022;2022-08-21T02:17:46;21.70;68.00
37806;DHT22;25082;50.870;0.022;2022-08-21T02:20:21;21.70;68.00
37806;DHT22;25082;50.870;0.022;2022-08-21T02:22:48;21.70;68.00
37806;DHT22;25082;50.870;0.022;2022-08-21T02:25:15;21.70;68.10
37806;DHT22;25082;50.870;0.022;2022-08-21T02:27:43;21.70;68.00
37806;DHT22;25082;50.870;0.022;2022-08-21T02:30:13;21.70;68.00
37806;DHT22;25082;50.870;0.022;2022-08-21T02:32:40;21.70;68.10
37806;DHT22;25082;50.870;0.022;2022-08-21T02:35:07;21.70;68.00
37806;DHT22;25082;50.870;0.022;2022-08-21T02:37:33;21.70;68.00
37806;DHT22;25082;50.870;0.022;2022-08-21T02:40:00;21.70;68.00
37806;DHT22;25082;50.870;0.022;2022-08-21T02:42:26;21.70;68.50
37806;DHT22;25082;50.870;0.022;2022-08-21T02:44:52;21.70;68.00
37806;DHT22;25082;50.870;0.022;2022-08-21T02:47:18;21.70;68.10
37806;DHT22;25082;50.870;0.022;2022-08-21T02:49:43;21.70;68.00
37806;DHT22;25082;50.870;0.022;2022-08-21T02:52:09;21.70;68.00
37806;DHT22;25082;50.870;0.022;2022-08-21T02:54:37;21.70;68.00
37806;DHT22;25082;50.870;0.022;2022-08-21T02:57:02;21.70;67.90
37806;DHT22;25082;50.870;0.022;2022-08-21T02:59:28;21.70;68.00
37806;DHT22;25082;50.870;0.022;2022-08-21T03:01:54;21.70;68.00
37806;DHT22;25082;50.870;0.022;2022-08-21T03:04:21;21.70;67.90
37806;DHT22;25082;50.870;0.022;2022-08-21T03:06:47;21.70;67.90
37806;DHT22;25082;50.870;0.022;2022-08-21T03:09:13;21.70;68.00
37806;DHT22;25082;50.870;0.022;2022-08-21T03:11:39;21.70;68.00
37806;DHT22;25082;50.870;0.022;2022-08-21T03:14:05;21.70;68.00
37806;DHT22;25082;50.870;0.022;2022-08-21T03:16:30;21.70;68.00
37806;DHT22;25082;50.870;0.022;2022-08-21T03:18:56;21.70;68.00
37806;DHT22;25082;50.870;0.022;2022-08-21T03:21:22;21.70;68.00
37806;DHT22;25082;50.870;0.022;2022-08-21T03:23:48;21.70;68.00
37806;DHT22;25082;50.870;0.022;2022-08-21T03:26:13;21.70;67.90
37806;DHT22;25082;50.870;0.022;2022-08-21T03:28:39;21.60;68.00
37806;DHT22;25082;50.870;0.022;2022-08-21T03:31:05;21.60;67.90
37806;DHT22;25082;50.870;0.022;2022-08-21T03:33:31;21.70;68.10
37806;DHT22;25082;50.870;0.022;2022-08-21T03:36:04;21.60;68.00
37806;DHT22;25082;50.870;0.022;2022-08-21T03:38:32;21.60;67.90
37806;DHT22;25082;50.870;0.022;2022-08-21T03:40:58;21.60;68.00
37806;DHT22;25082;50.870;0.022;2022-08-21T03:43:26;21.60;68.00
37806;DHT22;25082;50.870;0.022;2022-08-21T03:45:52;21.70;68.00
37806;DHT22;25082;50.870;0.022;2022-08-21T03:48:18;21.60;68.00
37806;DHT22;25082;50.870;0.022;2022-08-21T03:50:44;21.70;68.10
37806;DHT22;25082;50.870;0.022;2022-08-21T03:53:13;21.60;68.00
37806;DHT22;25082;50.870;0.022;2022-08-21T03:55:39;21.70;68.20
37806;DHT22;25082;50.870;0.022;2022-08-21T03:58:05;21.60;68.00
37806;DHT22;25082;50.870;0.022;2022-08-21T04:00:31;21.70;68.10
37806;DHT22;25082;50.870;0.022;2022-08-21T04:02:57;21.60;68.00
37806;DHT22;25082;50.870;0.022;2022-08-21T04:05:23;21.70;68.00
37806;DHT22;25082;50.870;0.022;2022-08-21T04:08:01;21.60;68.10
37806;DHT22;25082;50.870;0.022;2022-08-21T04:10:28;21.60;68.10
37806;DHT22;25082;50.870;0.022;2022-08-21T04:12:54;21.60;68.20
37806;DHT22;25082;50.870;0.022;2022-08-21T04:15:23;21.70;68.10
37806;DHT22;25082;50.870;0.022;2022-08-21T04:17:50;21.60;68.00
37806;DHT22;25082;50.870;0.022;2022-08-21T04:20:17;21.60;68.00
37806;DHT22;25082;50.870;0.022;2022-08-21T04:22:43;21.60;68.10
37806;DHT22;25082;50.870;0.022;2022-08-21T04:25:10;21.60;67.90
37806;DHT22;25082;50.870;0.022;2022-08-21T04:27:36;21.60;68.00
37806;DHT22;25082;50.870;0.022;2022-08-21T04:30:03;21.60;68.10
37806;DHT22;25082;50.870;0.022;2022-08-21T04:32:29;21.60;68.00
37806;DHT22;25082;50.870;0.022;2022-08-21T04:35:06;21.60;68.00
37806;DHT22;25082;50.870;0.022;2022-08-21T04:37:32;21.60;68.10
37806;DHT22;25082;50.870;0.022;2022-08-21T04:39:58;21.60;68.20
37806;DHT22;25082;50.870;0.022;2022-08-21T04:42:27;21.60;68.20
37806;DHT22;25082;50.870;0.022;2022-08-21T04:44:54;21.60;68.00
37806;DHT22;25082;50.870;0.022;2022-08-21T04:47:22;21.60;68.10
37806;DHT22;25082;50.870;0.022;2022-08-21T04:49:49;21.60;68.00
37806;DHT22;25082;50.870;0.022;2022-08-21T04:52:18;21.60;68.00
37806;DHT22;25082;50.870;0.022;2022-08-21T04:54:45;21.60;68.00
37806;DHT22;25082;50.870;0.022;2022-08-21T04:57:14;21.60;68.00
37806;DHT22;25082;50.870;0.022;2022-08-21T04:59:44;21.60;68.10
37806;DHT22;25082;50.870;0.022;2022-08-21T05:02:11;21.60;68.00
37806;DHT22;25082;50.870;0.022;2022-08-21T05:04:46;21.60;68.10
37806;DHT22;25082;50.870;0.022;2022-08-21T05:07:20;21.60;68.00
37806;DHT22;25082;50.870;0.022;2022-08-21T05:09:47;21.60;68.10
37806;DHT22;25082;50.870;0.022;2022-08-21T05:12:13;21.60;68.00
37806;DHT22;25082;50.870;0.022;2022-08-21T05:14:39;21.60;68.00
37806;DHT22;25082;50.870;0.022;2022-08-21T05:17:05;21.50;68.10
37806;DHT22;25082;50.870;0.022;2022-08-21T05:19:31;21.60;68.00
37806;DHT22;25082;50.870;0.022;2022-08-21T05:21:57;21.60;68.60
37806;DHT22;25082;50.870;0.022;2022-08-21T05:24:23;21.60;68.10
37806;DHT22;25082;50.870;0.022;2022-08-21T05:26:49;21.60;68.10
37806;DHT22;25082;50.870;0.022;2022-08-21T05:29:15;21.60;68.20
37806;DHT22;25082;50.870;0.022;2022-08-21T05:31:41;21.60;68.10
37806;DHT22;25082;50.870;0.022;2022-08-21T05:34:07;21.60;68.10
37806;DHT22;25082;50.870;0.022;2022-08-21T05:36:34;21.60;68.00
37806;DHT22;25082;50.870;0.022;2022-08-21T05:39:00;21.60;68.10
37806;DHT22;25082;50.870;0.022;2022-08-21T05:41:25;21.60;68.10
37806;DHT22;25082;50.870;0.022;2022-08-21T05:43:51;21.50;68.20
37806;DHT22;25082;50.870;0.022;2022-08-21T05:46:17;21.60;68.20
37806;DHT22;25082;50.870;0.022;2022-08-21T05:48:43;21.60;68.10
37806;DHT22;25082;50.870;0.022;2022-08-21T05:51:11;21.60;68.20
37806;DHT22;25082;50.870;0.022;2022-08-21T05:53:37;21.50;68.10
37806;DHT22;25082;50.870;0.022;2022-08-21T05:56:04;21.50;68.10
37806;DHT22;25082;50.870;0.022;2022-08-21T05:58:32;21.60;68.10
37806;DHT22;25082;50.870;0.022;2022-08-21T06:00:58;21.60;68.20
37806;DHT22;25082;50.870;0.022;2022-08-21T06:03:30;21.60;68.20
37806;DHT22;25082;50.870;0.022;2022-08-21T06:05:56;21.60;68.20
37806;DHT22;25082;50.870;0.022;2022-08-21T06:08:23;21.60;68.20
37806;DHT22;25082;50.870;0.022;2022-08-21T06:10:50;21.50;68.10
37806;DHT22;25082;50.870;0.022;2022-08-21T06:13:18;21.60;68.20
37806;DHT22;25082;50.870;0.022;2022-08-21T06:15:44;21.60;68.10
37806;DHT22;25082;50.870;0.022;2022-08-21T06:18:10;21.60;68.20
37806;DHT22;25082;50.870;0.022;2022-08-21T06:20:37;21.60;68.20
37806;DHT22;25082;50.870;0.022;2022-08-21T06:23:03;21.50;68.20
37806;DHT22;25082;50.870;0.022;2022-08-21T06:25:29;21.60;68.20
37806;DHT22;25082;50.870;0.022;2022-08-21T06:28:07;21.50;68.20
37806;DHT22;25082;50.870;0.022;2022-08-21T06:30:33;21.50;68.20
37806;DHT22;25082;50.870;0.022;2022-08-21T06:32:59;21.60;68.20
37806;DHT22;25082;50.870;0.022;2022-08-21T06:35:25;21.50;68.20
37806;DHT22;25082;50.870;0.022;2022-08-21T06:37:51;21.50;68.20
37806;DHT22;25082;50.870;0.022;2022-08-21T06:40:17;21.50;68.20
37806;DHT22;25082;50.870;0.022;2022-08-21T06:42:43;21.60;68.20
37806;DHT22;25082;50.870;0.022;2022-08-21T06:45:10;21.50;68.20
37806;DHT22;25082;50.870;0.022;2022-08-21T06:47:36;21.60;68.30
37806;DHT22;25082;50.870;0.022;2022-08-21T06:50:02;21.50;68.20
37806;DHT22;25082;50.870;0.022;2022-08-21T06:52:29;21.50;68.20
37806;DHT22;25082;50.870;0.022;2022-08-21T06:54:55;21.50;68.20
37806;DHT22;25082;50.870;0.022;2022-08-21T06:57:21;21.60;68.20
37806;DHT22;25082;50.870;0.022;2022-08-21T06:59:47;21.60;68.80
37806;DHT22;25082;50.870;0.022;2022-08-21T07:02:13;21.50;68.20
37806;DHT22;25082;50.870;0.022;2022-08-21T07:04:38;21.50;68.20
37806;DHT22;25082;50.870;0.022;2022-08-21T07:07:04;21.50;68.30
37806;DHT22;25082;50.870;0.022;2022-08-21T07:09:30;21.60;68.40
37806;DHT22;25082;50.870;0.022;2022-08-21T07:11:56;21.60;68.30
37806;DHT22;25082;50.870;0.022;2022-08-21T07:14:22;21.60;68.30
37806;DHT22;25082;50.870;0.022;2022-08-21T07:16:49;21.60;68.30
37806;DHT22;25082;50.870;0.022;2022-08-21T07:19:16;21.50;68.30
37806;DHT22;25082;50.870;0.022;2022-08-21T07:21:42;21.50;68.20
37806;DHT22;25082;50.870;0.022;2022-08-21T07:24:08;21.50;68.30
37806;DHT22;25082;50.870;0.022;2022-08-21T07:26:34;21.50;68.30
37806;DHT22;25082;50.870;0.022;2022-08-21T07:29:00;21.60;68.30
37806;DHT22;25082;50.870;0.022;2022-08-21T07:31:27;21.50;68.40
37806;DHT22;25082;50.870;0.022;2022-08-21T07:33:53;21.60;68.40
37806;DHT22;25082;50.870;0.022;2022-08-21T07:36:19;21.50;68.30
37806;DHT22;25082;50.870;0.022;2022-08-21T07:38:45;21.60;68.40
37806;DHT22;25082;50.870;0.022;2022-08-21T07:41:22;21.60;68.40
37806;DHT22;25082;50.870;0.022;2022-08-21T07:43:49;21.60;68.40
37806;DHT22;25082;50.870;0.022;2022-08-21T07:46:15;21.60;68.40
37806;DHT22;25082;50.870;0.022;2022-08-21T07:48:41;21.60;68.40
37806;DHT22;25082;50.870;0.022;2022-08-21T07:51:10;21.60;68.40
37806;DHT22;25082;50.870;0.022;2022-08-21T07:53:37;21.60;68.50
37806;DHT22;25082;50.870;0.022;2022-08-21T07:56:05;21.60;68.40
37806;DHT22;25082;50.870;0.022;2022-08-21T07:58:32;21.60;68.40
37806;DHT22;25082;50.870;0.022;2022-08-21T08:00:58;21.60;68.40
37806;DHT22;25082;50.870;0.022;2022-08-21T08:03:24;21.60;68.40
37806;DHT22;25082;50.870;0.022;2022-08-21T08:05:50;21.60;68.40
37806;DHT22;25082;50.870;0.022;2022-08-21T08:08:16;21.60;68.40
37806;DHT22;25082;50.870;0.022;2022-08-21T08:10:43;21.60;68.50
37806;DHT22;25082;50.870;0.022;2022-08-21T08:13:09;21.60;68.50
37806;DHT22;25082;50.870;0.022;2022-08-21T08:15:36;21.60;68.50
37806;DHT22;25082;50.870;0.022;2022-08-21T08:18:02;21.60;68.50
37806;DHT22;25082;50.870;0.022;2022-08-21T08:20:28;21.60;68.50
37806;DHT22;25082;50.870;0.022;2022-08-21T08:22:55;21.60;68.50
37806;DHT22;25082;50.870;0.022;2022-08-21T08:25:22;21.60;68.50
37806;DHT22;25082;50.870;0.022;2022-08-21T08:27:48;21.60;68.50
37806;DHT22;25082;50.870;0.022;2022-08-21T08:30:16;21.60;68.50
37806;DHT22;25082;50.870;0.022;2022-08-21T08:32:43;21.60;68.60
37806;DHT22;25082;50.870;0.022;2022-08-21T08:35:10;21.60;68.60
37806;DHT22;25082;50.870;0.022;2022-08-21T08:37:38;21.60;68.60
37806;DHT22;25082;50.870;0.022;2022-08-21T08:40:10;21.60;68.60
37806;DHT22;25082;50.870;0.022;2022-08-21T08:42:36;21.60;68.60
37806;DHT22;25082;50.870;0.022;2022-08-21T08:47:35;21.60;68.60
37806;DHT22;25082;50.870;0.022;2022-08-21T08:50:38;21.60;68.50
37806;DHT22;25082;50.870;0.022;2022-08-21T08:53:07;21.60;68.60
37806;DHT22;25082;50.870;0.022;2022-08-21T08:55:41;21.60;68.50
37806;DHT22;25082;50.870;0.022;2022-08-21T08:58:24;21.60;68.60
37806;DHT22;25082;50.870;0.022;2022-08-21T09:00:54;21.60;68.60
37806;DHT22;25082;50.870;0.022;2022-08-21T09:03:22;21.70;68.70
37806;DHT22;25082;50.870;0.022;2022-08-21T09:05:58;21.60;68.60
37806;DHT22;25082;50.870;0.022;2022-08-21T09:11:26;21.70;68.70
37806;DHT22;25082;50.870;0.022;2022-08-21T09:25:27;21.70;68.70
37806;DHT22;25082;50.870;0.022;2022-08-21T09:27:54;21.70;68.60
37806;DHT22;25082;50.870;0.022;2022-08-21T09:30:28;21.70;68.70
37806;DHT22;25082;50.870;0.022;2022-08-21T09:32:55;21.60;68.70
37806;DHT22;25082;50.870;0.022;2022-08-21T09:35:23;21.70;68.70
37806;DHT22;25082;50.870;0.022;2022-08-21T09:38:03;21.70;68.70
37806;DHT22;25082;50.870;0.022;2022-08-21T09:40:39;21.70;68.70
37806;DHT22;25082;50.870;0.022;2022-08-21T09:45:39;21.70;68.70
37806;DHT22;25082;50.870;0.022;2022-08-21T09:50:42;21.70;68.70
37806;DHT22;25082;50.870;0.022;2022-08-21T09:53:20;21.70;68.60
37806;DHT22;25082;50.870;0.022;2022-08-21T09:55:56;21.70;68.70
37806;DHT22;25082;50.870;0.022;2022-08-21T09:58:45;21.70;68.60
37806;DHT22;25082;50.870;0.022;2022-08-21T10:01:19;21.70;68.60
37806;DHT22;25082;50.870;0.022;2022-08-21T10:03:45;21.80;68.60
37806;DHT22;25082;50.870;0.022;2022-08-21T10:06:23;21.70;68.50
37806;DHT22;25082;50.870;0.022;2022-08-21T10:08:49;21.70;68.50
37806;DHT22;25082;50.870;0.022;2022-08-21T10:11:16;21.70;68.50
37806;DHT22;25082;50.870;0.022;2022-08-21T10:21:46;21.70;68.60
37806;DHT22;25082;50.870;0.022;2022-08-21T10:24:38;21.70;68.60
37806;DHT22;25082;50.870;0.022;2022-08-21T10:27:47;21.70;68.60
37806;DHT22;25082;50.870;0.022;2022-08-21T10:30:49;21.80;68.60
37806;DHT22;25082;50.870;0.022;2022-08-21T10:42:25;21.70;67.50
37806;DHT22;25082;50.870;0.022;2022-08-21T10:47:33;21.70;67.20
37806;DHT22;25082;50.870;0.022;2022-08-21T10:50:25;21.70;67.30
37806;DHT22;25082;50.870;0.022;2022-08-21T10:55:33;21.70;67.50
37806;DHT22;25082;50.870;0.022;2022-08-21T10:58:29;21.70;66.70
37806;DHT22;25082;50.870;0.022;2022-08-21T11:01:11;21.70;67.00
37806;DHT22;25082;50.870;0.022;2022-08-21T11:06:23;21.70;67.00
37806;DHT22;25082;50.870;0.022;2022-08-21T11:08:57;21.70;66.80
37806;DHT22;25082;50.870;0.022;2022-08-21T11:11:34;21.70;67.10
37806;DHT22;25082;50.870;0.022;2022-08-21T11:17:05;21.70;67.20
37806;DHT22;25082;50.870;0.022;2022-08-21T11:19:42;21.70;67.10
37806;DHT22;25082;50.870;0.022;2022-08-21T11:22:25;21.70;67.10
37806;DHT22;25082;50.870;0.022;2022-08-21T11:25:08;21.70;66.70
37806;DHT22;25082;50.870;0.022;2022-08-21T11:27:46;21.70;66.80
37806;DHT22;25082;50.870;0.022;2022-08-21T11:30:14;21.70;66.90
37806;DHT22;25082;50.870;0.022;2022-08-21T11:33:05;21.70;67.10
37806;DHT22;25082;50.870;0.022;2022-08-21T11:35:41;21.70;67.00
37806;DHT22;25082;50.870;0.022;2022-08-21T11:43:49;21.80;66.60
37806;DHT22;25082;50.870;0.022;2022-08-21T11:46:28;21.70;66.50
37806;DHT22;25082;50.870;0.022;2022-08-21T11:51:41;21.70;66.80
37806;DHT22;25082;50.870;0.022;2022-08-21T11:56:53;21.70;67.00
37806;DHT22;25082;50.870;0.022;2022-08-21T11:59:34;21.70;67.20
37806;DHT22;25082;50.870;0.022;2022-08-21T12:02:00;21.70;67.30
37806;DHT22;25082;50.870;0.022;2022-08-21T12:04:31;21.70;67.10
37806;DHT22;25082;50.870;0.022;2022-08-21T12:07:27;21.70;67.10
37806;DHT22;25082;50.870;0.022;2022-08-21T12:09:56;21.80;66.50
37806;DHT22;25082;50.870;0.022;2022-08-21T12:12:26;21.70;66.70
37806;DHT22;25082;50.870;0.022;2022-08-21T12:15:16;21.70;66.80
37806;DHT22;25082;50.870;0.022;2022-08-21T12:22:53;21.70;67.10
37806;DHT22;25082;50.870;0.022;2022-08-21T12:25:20;21.70;67.50
37806;DHT22;25082;50.870;0.022;2022-08-21T12:27:51;21.70;67.10
37806;DHT22;25082;50.870;0.022;2022-08-21T12:32:58;21.70;67.00
37806;DHT22;25082;50.870;0.022;2022-08-21T12:35:39;21.70;67.10
37806;DHT22;25082;50.870;0.022;2022-08-21T12:38:27;21.70;66.90
37806;DHT22;25082;50.870;0.022;2022-08-21T12:40:57;21.70;66.40
37806;DHT22;25082;50.870;0.022;2022-08-21T12:45:56;21.70;66.90
37806;DHT22;25082;50.870;0.022;2022-08-21T12:51:11;21.70;66.90
37806;DHT22;25082;50.870;0.022;2022-08-21T12:53:51;21.70;67.00
37806;DHT22;25082;50.870;0.022;2022-08-21T12:56:19;21.70;67.30
37806;DHT22;25082;50.870;0.022;2022-08-21T12:58:48;21.70;67.40
37806;DHT22;25082;50.870;0.022;2022-08-21T13:03:52;21.70;67.80
37806;DHT22;25082;50.870;0.022;2022-08-21T13:06:21;21.70;68.00
37806;DHT22;25082;50.870;0.022;2022-08-21T13:09:06;21.70;67.40
37806;DHT22;25082;50.870;0.022;2022-08-21T13:11:33;21.70;67.30
37806;DHT22;25082;50.870;0.022;2022-08-21T13:14:00;21.70;68.10
37806;DHT22;25082;50.870;0.022;2022-08-21T13:16:28;21.70;67.50
37806;DHT22;25082;50.870;0.022;2022-08-21T13:19:05;21.70;67.70
37806;DHT22;25082;50.870;0.022;2022-08-21T13:21:41;21.60;67.60
37806;DHT22;25082;50.870;0.022;2022-08-21T13:24:17;21.70;67.50
37806;DHT22;25082;50.870;0.022;2022-08-21T13:26:43;21.70;67.30
37806;DHT22;25082;50.870;0.022;2022-08-21T13:29:12;21.60;67.10
37806;DHT22;25082;50.870;0.022;2022-08-21T13:31:39;21.60;67.10
37806;DHT22;25082;50.870;0.022;2022-08-21T13:34:08;21.60;67.20
37806;DHT22;25082;50.870;0.022;2022-08-21T13:36:39;21.60;66.90
37806;DHT22;25082;50.870;0.022;2022-08-21T13:39:11;21.60;66.50
37806;DHT22;25082;50.870;0.022;2022-08-21T13:41:40;21.60;67.00
37806;DHT22;25082;50.870;0.022;2022-08-21T13:44:22;21.60;67.10
37806;DHT22;25082;50.870;0.022;2022-08-21T13:46:52;21.60;67.60
37806;DHT22;25082;50.870;0.022;2022-08-21T13:49:23;21.60;68.20
37806;DHT22;25082;50.870;0.022;2022-08-21T13:51:51;21.60;67.30
37806;DHT22;25082;50.870;0.022;2022-08-21T13:56:47;21.60;67.50
37806;DHT22;25082;50.870;0.022;2022-08-21T13:59:26;21.60;67.60
37806;DHT22;25082;50.870;0.022;2022-08-21T14:02:17;21.60;67.70
37806;DHT22;25082;50.870;0.022;2022-08-21T14:05:01;21.50;67.90
37806;DHT22;25082;50.870;0.022;2022-08-21T14:10:05;21.60;68.20
37806;DHT22;25082;50.870;0.022;2022-08-21T14:12:38;21.60;68.10
37806;DHT22;25082;50.870;0.022;2022-08-21T14:15:06;21.60;68.00
37806;DHT22;25082;50.870;0.022;2022-08-21T14:17:36;21.50;68.10
37806;DHT22;25082;50.870;0.022;2022-08-21T14:20:09;21.60;68.40
37806;DHT22;25082;50.870;0.022;2022-08-21T14:22:45;21.50;68.40
37806;DHT22;25082;50.870;0.022;2022-08-21T14:25:15;21.60;68.30
37806;DHT22;25082;50.870;0.022;2022-08-21T14:32:52;21.50;68.80
37806;DHT22;25082;50.870;0.022;2022-08-21T14:35:18;21.50;68.90
37806;DHT22;25082;50.870;0.022;2022-08-21T14:37:47;21.50;68.50
37806;DHT22;25082;50.870;0.022;2022-08-21T14:40:13;21.50;68.90
37806;DHT22;25082;50.870;0.022;2022-08-21T14:42:42;21.60;69.30
37806;DHT22;25082;50.870;0.022;2022-08-21T14:45:26;21.50;69.70
37806;DHT22;25082;50.870;0.022;2022-08-21T14:47:53;21.50;69.90
37806;DHT22;25082;50.870;0.022;2022-08-21T14:50:19;21.60;70.00
37806;DHT22;25082;50.870;0.022;2022-08-21T14:52:45;21.50;70.10
37806;DHT22;25082;50.870;0.022;2022-08-21T14:55:12;21.50;70.00
37806;DHT22;25082;50.870;0.022;2022-08-21T14:57:48;21.60;70.00
37806;DHT22;25082;50.870;0.022;2022-08-21T15:00:16;21.50;70.00
37806;DHT22;25082;50.870;0.022;2022-08-21T15:02:43;21.50;70.50
37806;DHT22;25082;50.870;0.022;2022-08-21T15:05:09;21.50;70.60
37806;DHT22;25082;50.870;0.022;2022-08-21T15:07:36;21.50;70.80
37806;DHT22;25082;50.870;0.022;2022-08-21T15:10:02;21.50;70.60
37806;DHT22;25082;50.870;0.022;2022-08-21T15:12:29;21.50;70.40
37806;DHT22;25082;50.870;0.022;2022-08-21T15:14:54;21.50;70.30
37806;DHT22;25082;50.870;0.022;2022-08-21T15:17:20;21.50;70.50
37806;DHT22;25082;50.870;0.022;2022-08-21T15:19:46;21.50;70.30
37806;DHT22;25082;50.870;0.022;2022-08-21T15:22:12;21.50;70.30
37806;DHT22;25082;50.870;0.022;2022-08-21T15:24:37;21.50;70.20
37806;DHT22;25082;50.870;0.022;2022-08-21T15:27:04;21.50;70.00
37806;DHT22;25082;50.870;0.022;2022-08-21T15:29:32;21.50;70.00
37806;DHT22;25082;50.870;0.022;2022-08-21T15:32:00;21.60;70.10
37806;DHT22;25082;50.870;0.022;2022-08-21T15:34:29;21.60;70.30
37806;DHT22;25082;50.870;0.022;2022-08-21T15:36:56;21.50;70.20
37806;DHT22;25082;50.870;0.022;2022-08-21T15:39:24;21.50;70.20
37806;DHT22;25082;50.870;0.022;2022-08-21T15:41:50;21.60;70.10
37806;DHT22;25082;50.870;0.022;2022-08-21T15:44:16;21.50;70.00
37806;DHT22;25082;50.870;0.022;2022-08-21T15:46:42;21.50;70.00
37806;DHT22;25082;50.870;0.022;2022-08-21T15:49:10;21.60;70.20
37806;DHT22;25082;50.870;0.022;2022-08-21T15:51:36;21.60;70.00
37806;DHT22;25082;50.870;0.022;2022-08-21T15:54:02;21.60;70.00
37806;DHT22;25082;50.870;0.022;2022-08-21T15:56:34;21.50;69.50
37806;DHT22;25082;50.870;0.022;2022-08-21T15:59:12;21.60;69.40
37806;DHT22;25082;50.870;0.022;2022-08-21T16:01:39;21.60;69.50
37806;DHT22;25082;50.870;0.022;2022-08-21T16:04:06;21.60;69.50
37806;DHT22;25082;50.870;0.022;2022-08-21T16:06:33;21.60;69.50
37806;DHT22;25082;50.870;0.022;2022-08-21T16:08:59;21.60;69.10
37806;DHT22;25082;50.870;0.022;2022-08-21T16:11:26;21.50;69.00
37806;DHT22;25082;50.870;0.022;2022-08-21T16:13:52;21.60;69.30
37806;DHT22;25082;50.870;0.022;2022-08-21T16:16:20;21.60;69.70
37806;DHT22;25082;50.870;0.022;2022-08-21T16:18:47;21.60;69.70
37806;DHT22;25082;50.870;0.022;2022-08-21T16:21:14;21.60;69.80
37806;DHT22;25082;50.870;0.022;2022-08-21T16:23:40;21.60;69.10
37806;DHT22;25082;50.870;0.022;2022-08-21T16:26:07;21.60;69.30
37806;DHT22;25082;50.870;0.022;2022-08-21T16:28:36;21.50;69.10
37806;DHT22;25082;50.870;0.022;2022-08-21T16:31:03;21.60;69.30
37806;DHT22;25082;50.870;0.022;2022-08-21T16:36:00;21.50;69.60
37806;DHT22;25082;50.870;0.022;2022-08-21T16:38:27;21.50;69.70
37806;DHT22;25082;50.870;0.022;2022-08-21T16:40:54;21.50;69.30
37806;DHT22;25082;50.870;0.022;2022-08-21T16:43:26;21.60;69.50
37806;DHT22;25082;50.870;0.022;2022-08-21T16:45:53;21.50;69.60
37806;DHT22;25082;50.870;0.022;2022-08-21T16:48:21;21.50;69.40
37806;DHT22;25082;50.870;0.022;2022-08-21T16:50:47;21.50;69.50
37806;DHT22;25082;50.870;0.022;2022-08-21T16:53:13;21.50;69.60
37806;DHT22;25082;50.870;0.022;2022-08-21T16:55:39;21.50;69.40
37806;DHT22;25082;50.870;0.022;2022-08-21T17:00:52;21.50;69.30
37806;DHT22;25082;50.870;0.022;2022-08-21T17:03:20;21.50;69.20
37806;DHT22;25082;50.870;0.022;2022-08-21T17:05:50;21.50;69.00
37806;DHT22;25082;50.870;0.022;2022-08-21T17:08:16;21.50;69.10
37806;DHT22;25082;50.870;0.022;2022-08-21T17:10:45;21.50;69.20
37806;DHT22;25082;50.870;0.022;2022-08-21T17:13:11;21.50;68.90
37806;DHT22;25082;50.870;0.022;2022-08-21T17:15:38;21.50;68.70
37806;DHT22;25082;50.870;0.022;2022-08-21T17:18:05;21.50;68.50